createdAt,value
2018-03-24T00:01:25.729Z,78.80
2018-03-24T00:06:29.168Z,78.50
2018-03-24T00:11:31.738Z,78.70
2018-03-24T00:16:34.286Z,78.80
2018-03-24T00:21:36.854Z,78.90
2018-03-24T00:26:39.426Z,78.90
2018-03-24T00:31:41.978Z,79.00
2018-03-24T00:36:44.516Z,78.80
2018-03-24T00:41:47.100Z,79.00
2018-03-24T00:46:49.651Z,79.10
2018-03-24T00:51:53.006Z,78.90
2018-03-24T00:56:55.570Z,78.80
2018-03-24T01:01:58.141Z,78.90
2018-03-24T01:07:00.697Z,79.00
2018-03-24T01:12:03.290Z,79.00
2018-03-24T01:17:05.861Z,79.10
2018-03-24T01:22:09.198Z,79.20
2018-03-24T01:27:12.544Z,79.70
2018-03-24T01:32:15.115Z,79.50
2018-03-24T01:37:17.660Z,79.10
2018-03-24T01:42:20.197Z,79.20
2018-03-24T01:47:22.773Z,79.00
2018-03-24T01:52:25.325Z,79.20
2018-03-24T01:57:27.884Z,79.30
2018-03-24T02:02:30.457Z,79.30
2018-03-24T02:07:33.001Z,79.20
2018-03-24T02:12:35.558Z,79.40
2018-03-24T02:17:38.127Z,79.20
2018-03-24T02:22:40.698Z,79.40
2018-03-24T02:27:43.334Z,79.50
2018-03-24T02:32:45.976Z,79.40
2018-03-24T02:37:48.552Z,80.10
2018-03-24T02:42:51.120Z,80.90
2018-03-24T02:47:53.694Z,79.90
2018-03-24T02:52:57.002Z,79.90
2018-03-24T02:57:59.568Z,79.90
2018-03-24T03:03:02.202Z,80.00
2018-03-24T03:08:05.514Z,80.20
2018-03-24T03:13:08.109Z,80.10
2018-03-24T03:18:10.645Z,80.00
2018-03-24T03:23:13.185Z,80.10
2018-03-24T03:28:15.747Z,81.50
2018-03-24T03:33:18.317Z,80.20
2018-03-24T03:38:20.909Z,80.20
2018-03-24T03:43:24.253Z,80.10
2018-03-24T03:48:26.821Z,80.10
2018-03-24T03:53:29.397Z,80.40
2018-03-24T03:58:31.950Z,80.20
2018-03-24T04:03:35.274Z,80.40
2018-03-24T04:08:37.826Z,80.40
2018-03-24T04:13:40.378Z,80.40
2018-03-24T04:18:43.921Z,80.60
2018-03-24T04:23:46.510Z,80.50
2018-03-24T04:28:49.130Z,80.50
2018-03-24T04:33:51.700Z,80.60
2018-03-24T04:38:54.257Z,80.70
2018-03-24T04:43:56.831Z,80.60
2018-03-24T04:48:59.386Z,81.70
2018-03-24T04:54:02.833Z,81.50
2018-03-24T04:59:05.387Z,81.40
2018-03-24T05:04:07.976Z,81.30
2018-03-24T05:09:11.233Z,80.80
2018-03-24T05:14:13.808Z,80.90
2018-03-24T05:19:16.353Z,81.30
2018-03-24T05:24:18.910Z,81.40
2018-03-24T05:29:21.461Z,81.30
2018-03-24T05:34:24.022Z,81.10
2018-03-24T05:39:26.555Z,81.60
2018-03-24T05:44:29.195Z,81.30
2018-03-24T05:49:31.751Z,81.30
2018-03-24T05:54:34.474Z,81.20
2018-03-24T05:59:37.108Z,81.40
2018-03-24T06:04:39.664Z,82.40
2018-03-24T06:09:42.228Z,81.40
2018-03-24T06:14:45.849Z,81.60
2018-03-24T06:19:48.397Z,81.50
2018-03-24T06:24:50.971Z,81.80
2018-03-24T06:29:53.519Z,81.60
2018-03-24T06:34:56.082Z,82.30
2018-03-24T06:39:58.635Z,82.30
2018-03-24T06:45:01.238Z,82.80
2018-03-24T06:50:03.801Z,81.70
2018-03-24T06:55:06.354Z,82.60
2018-03-24T07:00:08.893Z,82.80
2018-03-24T07:05:11.455Z,83.20
2018-03-24T07:10:14.026Z,83.60
2018-03-24T07:15:17.366Z,83.20
2018-03-24T07:20:20.682Z,83.00
2018-03-24T07:25:23.239Z,82.90
2018-03-24T07:30:25.867Z,83.00
2018-03-24T07:35:28.420Z,83.30
2018-03-24T07:40:30.975Z,83.60
2018-03-24T07:45:34.298Z,83.30
2018-03-24T07:50:37.687Z,83.00
2018-03-24T07:55:40.281Z,82.90
2018-03-24T08:00:42.855Z,83.00
2018-03-24T08:05:45.425Z,82.90
2018-03-24T08:10:48.006Z,83.00
2018-03-24T08:15:51.339Z,82.80
2018-03-24T08:20:53.915Z,82.80
2018-03-24T08:25:56.474Z,82.10
2018-03-24T08:30:59.035Z,82.30
2018-03-24T08:36:01.574Z,80.90
2018-03-24T08:41:04.102Z,79.90
2018-03-24T08:46:06.645Z,79.10
2018-03-24T08:51:09.174Z,79.20
2018-03-24T08:56:11.728Z,77.90
2018-03-24T09:01:15.030Z,74.70
2018-03-24T09:06:17.577Z,74.60
2018-03-24T09:11:20.127Z,74.10
2018-03-24T09:16:22.662Z,71.30
2018-03-24T09:21:25.224Z,71.00
2018-03-24T09:26:27.814Z,68.00
2018-03-24T09:31:30.366Z,66.20
2018-03-24T09:36:32.934Z,67.20
2018-03-24T09:41:35.483Z,64.00
2018-03-24T09:46:38.449Z,62.50
2018-03-24T09:51:41.036Z,62.00
2018-03-24T09:56:43.595Z,60.60
2018-03-24T10:01:46.167Z,59.50
2018-03-24T10:06:48.709Z,56.40
2018-03-24T10:11:52.109Z,51.20
2018-03-24T10:16:54.853Z,50.20
2018-03-24T10:27:39.177Z,52.00
2018-03-24T10:32:41.730Z,52.80
2018-03-24T10:37:49.861Z,53.20
2018-03-24T10:42:58.196Z,50.80
2018-03-24T10:48:00.718Z,50.10
2018-03-24T10:53:03.296Z,50.90
2018-03-24T10:58:05.826Z,49.90
2018-03-24T11:03:08.372Z,49.80
2018-03-24T11:08:10.910Z,48.40
2018-03-24T11:13:13.450Z,46.90
2018-03-24T11:18:16.024Z,47.00
2018-03-24T11:23:18.591Z,46.70
2018-03-24T11:28:21.989Z,48.00
2018-03-24T11:33:24.553Z,48.40
2018-03-24T11:38:27.135Z,45.60
2018-03-24T11:43:29.691Z,46.10
2018-03-24T11:48:32.239Z,46.10
2018-03-24T11:53:45.555Z,45.20
2018-03-24T11:58:48.095Z,48.20
2018-03-24T12:03:50.644Z,46.80
2018-03-24T12:08:53.173Z,46.20
2018-03-24T12:13:55.764Z,45.90
2018-03-24T12:18:58.393Z,46.30
2018-03-24T12:24:00.947Z,47.80
2018-03-24T12:29:04.256Z,48.00
2018-03-24T12:34:06.795Z,48.00
2018-03-24T12:39:09.337Z,48.00
2018-03-24T12:44:11.887Z,47.00
2018-03-24T12:49:14.787Z,47.80
2018-03-24T12:54:18.163Z,47.60
2018-03-24T12:59:20.736Z,42.50
2018-03-24T13:04:24.151Z,44.00
2018-03-24T13:09:26.779Z,43.90
2018-03-24T13:14:29.329Z,45.00
2018-03-24T13:19:32.644Z,47.20
2018-03-24T13:24:35.217Z,47.20
2018-03-24T13:29:37.823Z,45.40
2018-03-24T13:34:40.379Z,45.50
2018-03-24T13:39:42.963Z,46.90
2018-03-24T13:44:45.492Z,47.00
2018-03-24T13:49:48.025Z,46.30
2018-03-24T13:54:50.622Z,47.30
2018-03-24T13:59:53.210Z,42.50
2018-03-24T14:04:55.770Z,44.80
2018-03-24T14:09:58.326Z,45.50
2018-03-24T14:15:00.894Z,46.80
2018-03-24T14:20:03.466Z,46.40
2018-03-24T14:25:06.010Z,46.60
2018-03-24T14:30:08.594Z,46.40
2018-03-24T14:35:11.937Z,46.10
2018-03-24T14:40:14.503Z,46.10
2018-03-24T14:45:17.051Z,45.40
2018-03-24T14:50:19.666Z,47.40
2018-03-24T14:55:22.199Z,47.50
2018-03-24T15:00:24.765Z,46.60
2018-03-24T15:05:27.323Z,47.70
2018-03-24T15:10:29.862Z,48.20
2018-03-24T15:15:32.405Z,47.70
2018-03-24T15:20:34.962Z,47.50
2018-03-24T15:25:37.509Z,47.30
2018-03-24T15:30:51.961Z,47.10
2018-03-24T15:36:06.523Z,47.00
2018-03-24T15:41:11.777Z,48.00
2018-03-24T15:46:14.665Z,47.50
2018-03-24T15:51:17.242Z,50.20
2018-03-24T15:56:19.815Z,50.80
2018-03-24T16:01:22.361Z,50.00
2018-03-24T16:06:24.959Z,48.80
2018-03-24T16:11:27.599Z,49.90
2018-03-24T16:16:30.159Z,50.90
2018-03-24T16:21:33.425Z,51.30
2018-03-24T16:26:36.033Z,52.20
2018-03-24T16:31:38.606Z,52.20
2018-03-24T16:36:41.211Z,52.00
2018-03-24T16:41:43.758Z,52.70
2018-03-24T16:46:46.326Z,52.50
2018-03-24T16:51:49.751Z,51.90
2018-03-24T16:56:53.081Z,51.90
2018-03-24T17:01:55.680Z,51.80
2018-03-24T17:06:58.272Z,52.90
2018-03-24T17:12:01.600Z,53.80
2018-03-24T17:17:04.202Z,53.80
2018-03-24T17:22:06.772Z,54.20
2018-03-24T17:27:09.356Z,54.10
2018-03-24T17:32:11.918Z,54.50
2018-03-24T17:37:14.482Z,54.70
2018-03-24T17:42:17.034Z,54.90
2018-03-24T17:47:20.344Z,54.80
2018-03-24T17:52:22.886Z,55.70
2018-03-24T17:57:26.211Z,56.10
2018-03-24T18:02:28.767Z,56.10
2018-03-24T18:07:31.345Z,56.10
2018-03-24T18:12:33.907Z,56.30
2018-03-24T18:17:36.491Z,56.70
2018-03-24T18:22:39.030Z,57.00
2018-03-24T18:27:41.810Z,57.20
2018-03-24T18:32:45.668Z,57.50
2018-03-24T18:37:48.235Z,57.90
2018-03-24T18:42:51.839Z,58.20
2018-03-24T18:47:54.391Z,58.20
2018-03-24T18:52:56.938Z,58.50
2018-03-24T18:57:59.486Z,58.80
2018-03-24T19:03:02.054Z,59.10
2018-03-24T19:08:05.375Z,59.40
2018-03-24T19:13:08.689Z,59.60
2018-03-24T19:18:11.246Z,59.50
2018-03-24T19:23:13.826Z,59.80
2018-03-24T19:28:16.400Z,60.00
2018-03-24T19:33:18.975Z,60.30
2018-03-24T19:38:21.521Z,60.60
2018-03-24T19:43:24.064Z,60.80
2018-03-24T19:48:26.603Z,60.90
2018-03-24T19:53:29.153Z,61.20
2018-03-24T19:58:31.695Z,61.60
2018-03-24T20:03:34.272Z,62.00
2018-03-24T20:08:38.180Z,62.60
2018-03-24T20:13:40.721Z,62.50
2018-03-24T20:18:43.271Z,63.00
2018-03-24T20:23:45.850Z,63.30
2018-03-24T20:28:48.397Z,63.40
2018-03-24T20:33:50.967Z,63.50
2018-03-24T20:38:53.502Z,63.70
2018-03-24T20:43:56.822Z,64.20
2018-03-24T20:48:59.373Z,64.20
2018-03-24T20:54:01.977Z,64.20
2018-03-24T20:59:04.471Z,64.30
2018-03-24T21:04:07.022Z,64.60
2018-03-24T21:09:10.340Z,65.00
2018-03-24T21:14:12.893Z,65.00
2018-03-24T21:19:15.473Z,65.30
2018-03-24T21:24:18.086Z,65.30
2018-03-24T21:29:20.620Z,65.60
2018-03-24T21:34:23.174Z,65.60
2018-03-24T21:39:25.737Z,65.90
2018-03-24T21:44:28.262Z,65.90
2018-03-24T21:49:30.810Z,66.30
2018-03-24T21:54:33.354Z,66.60
2018-03-24T21:59:35.911Z,66.40
2018-03-24T22:04:38.465Z,66.60
2018-03-24T22:09:41.032Z,66.60
2018-03-24T22:14:43.569Z,66.80
2018-03-24T22:19:46.133Z,67.00
2018-03-24T22:24:48.677Z,66.70
2018-03-24T22:29:51.251Z,66.80
2018-03-24T22:34:53.791Z,66.80
2018-03-24T22:39:56.348Z,66.60
2018-03-24T22:44:58.891Z,67.10
2018-03-24T22:50:02.247Z,66.70
2018-03-24T23:00:13.694Z,67.00
2018-03-24T23:05:16.247Z,66.90
2018-03-24T23:10:18.830Z,67.20
2018-03-24T23:15:21.402Z,67.00
2018-03-24T23:20:24.664Z,67.10
2018-03-24T23:25:27.984Z,67.30
2018-03-24T23:30:31.302Z,67.30
2018-03-24T23:35:33.847Z,67.30
2018-03-24T23:40:36.396Z,67.20
2018-03-24T23:45:39.693Z,67.30
2018-03-24T23:50:42.433Z,67.30
2018-03-24T23:55:44.970Z,67.80
